sensor_id;sensor_type;location;lat;lon;timestamp;noise_LAeq;noise_LA_min;noise_LA_max;noise_LA01;noise_LA95
51665;Laerm;37751;52.408;12.536;2023-05-10T00:01:07;49.61;38.12;69.77;;
51665;Laerm;37751;52.408;12.536;2023-05-10T00:03:35;52.36;39.05;71.39;;
51665;Laerm;37751;52.408;12.536;2023-05-10T00:06:03;54.43;38.70;76.58;;
51665;Laerm;37751;52.408;12.536;2023-05-10T00:08:31;48.77;39.37;65.81;;
51665;Laerm;37751;52.408;12.536;2023-05-10T00:10:58;56.84;39.95;72.67;;
51665;Laerm;37751;52.408;12.536;2023-05-10T00:13:26;51.72;38.32;68.89;;
51665;Laerm;37751;52.408;12.536;2023-05-10T00:15:54;52.62;37.91;70.58;;
51665;Laerm;37751;52.408;12.536;2023-05-10T00:18:21;42.36;37.91;54.54;;
51665;Laerm;37751;52.408;12.536;2023-05-10T00:20:49;54.09;38.88;76.39;;
51665;Laerm;37751;52.408;12.536;2023-05-10T00:23:17;50.14;39.21;64.92;;
51665;Laerm;37751;52.408;12.536;2023-05-10T00:25:44;41.77;37.69;50.10;;
51665;Laerm;37751;52.408;12.536;2023-05-10T00:28:12;45.34;37.20;63.20;;
51665;Laerm;37751;52.408;12.536;2023-05-10T00:30:40;49.62;38.12;65.76;;
51665;Laerm;37751;52.408;12.536;2023-05-10T00:33:08;42.37;38.32;49.25;;
51665;Laerm;37751;52.408;12.536;2023-05-10T00:35:35;50.19;41.80;62.21;;
51665;Laerm;37751;52.408;12.536;2023-05-10T00:38:03;49.61;41.43;65.85;;
51665;Laerm;37751;52.408;12.536;2023-05-10T00:40:31;49.87;38.88;63.39;;
51665;Laerm;37751;52.408;12.536;2023-05-10T00:43:04;41.71;37.91;52.09;;
51665;Laerm;37751;52.408;12.536;2023-05-10T00:45:32;48.27;38.12;65.84;;
51665;Laerm;37751;52.408;12.536;2023-05-10T00:48:04;55.71;39.95;74.56;;
51665;Laerm;37751;52.408;12.536;2023-05-10T00:50:33;46.18;37.91;65.61;;
51665;Laerm;37751;52.408;12.536;2023-05-10T00:53:01;41.52;37.45;48.91;;
51665;Laerm;37751;52.408;12.536;2023-05-10T00:55:30;55.65;38.88;76.74;;
51665;Laerm;37751;52.408;12.536;2023-05-10T00:57:58;42.17;37.69;49.84;;
51665;Laerm;37751;52.408;12.536;2023-05-10T01:00:26;44.31;38.12;54.60;;
51665;Laerm;37751;52.408;12.536;2023-05-10T01:02:54;46.40;38.12;61.82;;
51665;Laerm;37751;52.408;12.536;2023-05-10T01:05:22;52.17;37.91;70.00;;
51665;Laerm;37751;52.408;12.536;2023-05-10T01:07:50;45.96;41.33;53.93;;
51665;Laerm;37751;52.408;12.536;2023-05-10T01:10:18;49.89;38.88;67.06;;
51665;Laerm;37751;52.408;12.536;2023-05-10T01:12:47;52.19;39.21;70.17;;
51665;Laerm;37751;52.408;12.536;2023-05-10T01:15:16;53.50;39.81;70.98;;
51665;Laerm;37751;52.408;12.536;2023-05-10T01:17:46;48.27;40.35;68.63;;
51665;Laerm;37751;52.408;12.536;2023-05-10T01:20:17;42.35;37.20;50.57;;
51665;Laerm;37751;52.408;12.536;2023-05-10T01:23:08;49.87;39.21;67.01;;
51665;Laerm;37751;52.408;12.536;2023-05-10T01:32:41;52.94;38.52;74.58;;
51665;Laerm;37751;52.408;12.536;2023-05-10T01:38:38;53.04;39.67;73.23;;
51665;Laerm;37751;52.408;12.536;2023-05-10T01:41:36;55.00;39.05;71.97;;
51665;Laerm;37751;52.408;12.536;2023-05-10T01:44:31;55.98;41.71;75.74;;
51665;Laerm;37751;52.408;12.536;2023-05-10T01:47:20;53.25;41.53;69.02;;
51665;Laerm;37751;52.408;12.536;2023-05-10T01:49:54;50.83;38.52;67.74;;
51665;Laerm;37751;52.408;12.536;2023-05-10T01:52:28;53.39;40.21;68.97;;
51665;Laerm;37751;52.408;12.536;2023-05-10T01:55:08;50.82;42.06;68.62;;
51665;Laerm;37751;52.408;12.536;2023-05-10T01:57:37;52.93;42.22;66.85;;
51665;Laerm;37751;52.408;12.536;2023-05-10T02:00:08;54.46;39.81;70.14;;
51665;Laerm;37751;52.408;12.536;2023-05-10T02:02:46;53.91;41.13;70.68;;
51665;Laerm;37751;52.408;12.536;2023-05-10T02:05:16;55.35;44.24;69.04;;
51665;Laerm;37751;52.408;12.536;2023-05-10T02:07:45;58.67;44.94;72.58;;
51665;Laerm;37751;52.408;12.536;2023-05-10T02:10:13;52.23;41.33;69.33;;
51665;Laerm;37751;52.408;12.536;2023-05-10T02:12:44;49.62;41.13;63.97;;
51665;Laerm;37751;52.408;12.536;2023-05-10T02:15:20;57.52;43.59;75.54;;
51665;Laerm;37751;52.408;12.536;2023-05-10T02:17:49;57.02;42.14;73.00;;
51665;Laerm;37751;52.408;12.536;2023-05-10T02:20:18;53.22;41.71;70.03;;
51665;Laerm;37751;52.408;12.536;2023-05-10T02:22:50;58.79;41.33;73.66;;
51665;Laerm;37751;52.408;12.536;2023-05-10T02:25:20;57.80;45.43;71.78;;
51665;Laerm;37751;52.408;12.536;2023-05-10T02:27:49;59.21;46.86;73.68;;
51665;Laerm;37751;52.408;12.536;2023-05-10T02:30:18;55.26;44.09;67.40;;
51665;Laerm;37751;52.408;12.536;2023-05-10T02:32:47;57.02;44.72;71.35;;
51665;Laerm;37751;52.408;12.536;2023-05-10T02:35:16;58.66;44.44;72.09;;
51665;Laerm;37751;52.408;12.536;2023-05-10T02:37:45;62.70;49.07;78.78;;
51665;Laerm;37751;52.408;12.536;2023-05-10T02:40:15;62.59;48.81;73.89;;
51665;Laerm;37751;52.408;12.536;2023-05-10T02:42:46;62.16;47.97;75.41;;
51665;Laerm;37751;52.408;12.536;2023-05-10T02:45:20;60.67;48.10;71.64;;
51665;Laerm;37751;52.408;12.536;2023-05-10T02:47:49;62.87;49.83;76.43;;
51665;Laerm;37751;52.408;12.536;2023-05-10T02:50:17;59.14;48.20;73.14;;
51665;Laerm;37751;52.408;12.536;2023-05-10T02:52:56;61.52;49.05;75.74;;
51665;Laerm;37751;52.408;12.536;2023-05-10T02:55:29;59.32;49.32;70.95;;
51665;Laerm;37751;52.408;12.536;2023-05-10T02:58:01;62.21;46.83;74.95;;
51665;Laerm;37751;52.408;12.536;2023-05-10T03:00:29;64.16;48.40;78.63;;
51665;Laerm;37751;52.408;12.536;2023-05-10T03:02:58;60.30;45.69;76.40;;
51665;Laerm;37751;52.408;12.536;2023-05-10T03:05:26;58.52;45.73;70.86;;
51665;Laerm;37751;52.408;12.536;2023-05-10T03:07:54;60.95;46.89;70.26;;
51665;Laerm;37751;52.408;12.536;2023-05-10T03:10:28;61.31;46.48;74.35;;
51665;Laerm;37751;52.408;12.536;2023-05-10T03:13:30;61.94;50.04;74.91;;
51665;Laerm;37751;52.408;12.536;2023-05-10T03:16:15;61.42;47.10;75.32;;
51665;Laerm;37751;52.408;12.536;2023-05-10T03:19:17;62.97;48.77;74.95;;
51665;Laerm;37751;52.408;12.536;2023-05-10T03:21:51;60.98;47.66;73.60;;
51665;Laerm;37751;52.408;12.536;2023-05-10T03:24:22;62.75;48.79;75.12;;
51665;Laerm;37751;52.408;12.536;2023-05-10T03:26:54;61.27;49.16;75.30;;
51665;Laerm;37751;52.408;12.536;2023-05-10T03:29:25;60.91;48.55;75.29;;
51665;Laerm;37751;52.408;12.536;2023-05-10T03:31:53;64.23;48.62;78.19;;
51665;Laerm;37751;52.408;12.536;2023-05-10T03:34:24;64.98;49.34;74.84;;
51665;Laerm;37751;52.408;12.536;2023-05-10T03:36:52;62.56;49.31;73.54;;
51665;Laerm;37751;52.408;12.536;2023-05-10T03:39:20;64.47;50.21;74.47;;
51665;Laerm;37751;52.408;12.536;2023-05-10T03:41:53;62.49;47.82;74.22;;
51665;Laerm;37751;52.408;12.536;2023-05-10T03:44:21;63.18;49.98;75.98;;
51665;Laerm;37751;52.408;12.536;2023-05-10T03:46:48;64.15;52.09;77.64;;
51665;Laerm;37751;52.408;12.536;2023-05-10T03:49:19;63.19;47.05;74.01;;
51665;Laerm;37751;52.408;12.536;2023-05-10T03:51:47;63.50;50.04;74.95;;
51665;Laerm;37751;52.408;12.536;2023-05-10T03:54:16;62.56;49.49;74.92;;
51665;Laerm;37751;52.408;12.536;2023-05-10T03:56:43;63.98;48.46;74.84;;
51665;Laerm;37751;52.408;12.536;2023-05-10T03:59:11;63.05;48.46;73.16;;
51665;Laerm;37751;52.408;12.536;2023-05-10T04:01:39;61.42;49.20;77.30;;
51665;Laerm;37751;52.408;12.536;2023-05-10T04:04:06;61.81;48.63;72.16;;
51665;Laerm;37751;52.408;12.536;2023-05-10T04:06:34;64.68;52.69;73.12;;
51665;Laerm;37751;52.408;12.536;2023-05-10T04:09:02;64.78;49.13;78.02;;
51665;Laerm;37751;52.408;12.536;2023-05-10T04:11:31;65.48;48.75;77.09;;
51665;Laerm;37751;52.408;12.536;2023-05-10T04:13:59;62.80;48.36;78.08;;
51665;Laerm;37751;52.408;12.536;2023-05-10T04:16:27;64.54;48.67;75.29;;
51665;Laerm;37751;52.408;12.536;2023-05-10T04:18:55;64.53;48.46;75.80;;
51665;Laerm;37751;52.408;12.536;2023-05-10T04:21:22;65.40;51.09;79.59;;
51665;Laerm;37751;52.408;12.536;2023-05-10T04:23:50;60.89;48.26;71.20;;
51665;Laerm;37751;52.408;12.536;2023-05-10T04:26:18;64.43;49.63;72.13;;
51665;Laerm;37751;52.408;12.536;2023-05-10T04:28:45;63.20;48.57;72.87;;
51665;Laerm;37751;52.408;12.536;2023-05-10T04:31:13;64.62;54.89;72.29;;
51665;Laerm;37751;52.408;12.536;2023-05-10T04:33:41;65.60;48.52;82.92;;
51665;Laerm;37751;52.408;12.536;2023-05-10T04:36:08;66.96;49.74;90.53;;
51665;Laerm;37751;52.408;12.536;2023-05-10T04:38:36;64.29;48.70;74.40;;
51665;Laerm;37751;52.408;12.536;2023-05-10T04:41:08;65.01;49.42;76.86;;
51665;Laerm;37751;52.408;12.536;2023-05-10T04:43:37;63.41;48.68;77.33;;
51665;Laerm;37751;52.408;12.536;2023-05-10T04:46:05;63.69;49.46;72.57;;
51665;Laerm;37751;52.408;12.536;2023-05-10T04:48:34;65.36;51.99;75.50;;
51665;Laerm;37751;52.408;12.536;2023-05-10T04:51:02;64.91;50.69;73.63;;
51665;Laerm;37751;52.408;12.536;2023-05-10T04:53:31;64.83;50.33;77.49;;
51665;Laerm;37751;52.408;12.536;2023-05-10T04:55:59;64.37;50.71;76.24;;
51665;Laerm;37751;52.408;12.536;2023-05-10T04:58:26;63.87;51.25;74.60;;
51665;Laerm;37751;52.408;12.536;2023-05-10T05:00:54;62.71;49.84;73.21;;
51665;Laerm;37751;52.408;12.536;2023-05-10T05:03:22;65.23;53.67;74.10;;
51665;Laerm;37751;52.408;12.536;2023-05-10T05:05:50;65.51;51.72;77.47;;
51665;Laerm;37751;52.408;12.536;2023-05-10T05:08:17;63.56;52.63;71.61;;
51665;Laerm;37751;52.408;12.536;2023-05-10T05:10:45;64.37;52.37;72.73;;
51665;Laerm;37751;52.408;12.536;2023-05-10T05:13:13;63.55;50.12;71.63;;
51665;Laerm;37751;52.408;12.536;2023-05-10T05:15:40;65.07;50.51;74.41;;
51665;Laerm;37751;52.408;12.536;2023-05-10T05:18:08;65.34;50.47;82.08;;
51665;Laerm;37751;52.408;12.536;2023-05-10T05:20:36;65.09;55.82;82.49;;
51665;Laerm;37751;52.408;12.536;2023-05-10T05:23:03;64.11;55.98;73.68;;
51665;Laerm;37751;52.408;12.536;2023-05-10T05:25:35;68.16;54.86;85.82;;
51665;Laerm;37751;52.408;12.536;2023-05-10T05:28:03;68.16;53.53;82.01;;
51665;Laerm;37751;52.408;12.536;2023-05-10T05:30:31;63.85;50.72;73.59;;
51665;Laerm;37751;52.408;12.536;2023-05-10T05:32:59;65.08;54.89;78.93;;
51665;Laerm;37751;52.408;12.536;2023-05-10T05:35:27;64.61;50.98;75.20;;
51665;Laerm;37751;52.408;12.536;2023-05-10T05:37:54;66.20;55.39;86.29;;
51665;Laerm;37751;52.408;12.536;2023-05-10T05:40:23;72.65;53.83;93.72;;
51665;Laerm;37751;52.408;12.536;2023-05-10T05:42:50;66.00;53.94;80.14;;
51665;Laerm;37751;52.408;12.536;2023-05-10T05:45:18;65.29;48.91;76.26;;
51665;Laerm;37751;52.408;12.536;2023-05-10T05:47:46;68.35;58.92;82.46;;
51665;Laerm;37751;52.408;12.536;2023-05-10T05:50:14;65.11;54.59;73.50;;
51665;Laerm;37751;52.408;12.536;2023-05-10T05:52:42;72.67;50.02;89.28;;
51665;Laerm;37751;52.408;12.536;2023-05-10T05:55:10;65.56;55.69;73.09;;
51665;Laerm;37751;52.408;12.536;2023-05-10T05:57:37;69.78;49.99;92.19;;
51665;Laerm;37751;52.408;12.536;2023-05-10T06:00:06;65.02;50.88;78.95;;
51665;Laerm;37751;52.408;12.536;2023-05-10T06:02:39;63.67;53.50;73.31;;
51665;Laerm;37751;52.408;12.536;2023-05-10T06:05:07;65.74;54.94;78.65;;
51665;Laerm;37751;52.408;12.536;2023-05-10T06:07:35;63.46;52.00;73.41;;
51665;Laerm;37751;52.408;12.536;2023-05-10T06:10:04;65.56;54.15;78.09;;
51665;Laerm;37751;52.408;12.536;2023-05-10T06:12:32;64.96;54.30;72.79;;
51665;Laerm;37751;52.408;12.536;2023-05-10T06:14:59;65.27;52.39;74.99;;
51665;Laerm;37751;52.408;12.536;2023-05-10T06:17:27;63.53;50.82;72.60;;
51665;Laerm;37751;52.408;12.536;2023-05-10T06:19:55;64.30;50.28;73.37;;
51665;Laerm;37751;52.408;12.536;2023-05-10T06:22:23;63.26;49.85;73.83;;
51665;Laerm;37751;52.408;12.536;2023-05-10T06:24:51;63.84;51.25;72.30;;
51665;Laerm;37751;52.408;12.536;2023-05-10T06:27:18;63.88;50.75;72.65;;
51665;Laerm;37751;52.408;12.536;2023-05-10T06:29:46;65.55;53.46;89.24;;
51665;Laerm;37751;52.408;12.536;2023-05-10T06:32:15;64.22;52.62;77.87;;
51665;Laerm;37751;52.408;12.536;2023-05-10T06:34:43;64.91;55.24;75.34;;
51665;Laerm;37751;52.408;12.536;2023-05-10T06:37:12;63.78;53.02;74.64;;
51665;Laerm;37751;52.408;12.536;2023-05-10T06:39:39;64.55;53.56;75.20;;
51665;Laerm;37751;52.408;12.536;2023-05-10T06:42:07;65.04;52.95;74.00;;
51665;Laerm;37751;52.408;12.536;2023-05-10T06:44:38;66.18;52.01;78.68;;
51665;Laerm;37751;52.408;12.536;2023-05-10T06:47:06;63.84;51.49;73.57;;
51665;Laerm;37751;52.408;12.536;2023-05-10T06:49:33;62.89;50.89;78.84;;
51665;Laerm;37751;52.408;12.536;2023-05-10T06:52:01;65.45;53.74;76.63;;
51665;Laerm;37751;52.408;12.536;2023-05-10T06:54:29;66.37;53.75;84.87;;
51665;Laerm;37751;52.408;12.536;2023-05-10T06:56:57;65.37;50.34;73.39;;
51665;Laerm;37751;52.408;12.536;2023-05-10T06:59:25;64.96;54.99;83.09;;
51665;Laerm;37751;52.408;12.536;2023-05-10T07:01:53;65.52;56.15;80.69;;
51665;Laerm;37751;52.408;12.536;2023-05-10T07:04:21;64.59;51.85;74.27;;
51665;Laerm;37751;52.408;12.536;2023-05-10T07:06:49;64.21;51.92;73.59;;
51665;Laerm;37751;52.408;12.536;2023-05-10T07:09:17;65.56;55.07;73.75;;
51665;Laerm;37751;52.408;12.536;2023-05-10T07:11:44;64.10;55.53;73.06;;
51665;Laerm;37751;52.408;12.536;2023-05-10T07:14:12;71.29;58.16;85.81;;
51665;Laerm;37751;52.408;12.536;2023-05-10T07:16:40;65.80;53.29;74.96;;
51665;Laerm;37751;52.408;12.536;2023-05-10T07:19:07;62.95;53.11;72.26;;
51665;Laerm;37751;52.408;12.536;2023-05-10T07:21:36;65.29;52.97;73.86;;
51665;Laerm;37751;52.408;12.536;2023-05-10T07:24:04;65.13;52.73;76.08;;
51665;Laerm;37751;52.408;12.536;2023-05-10T07:26:31;63.53;54.25;71.00;;
51665;Laerm;37751;52.408;12.536;2023-05-10T07:28:59;65.30;54.51;75.74;;
51665;Laerm;37751;52.408;12.536;2023-05-10T07:31:27;64.53;51.18;75.64;;
51665;Laerm;37751;52.408;12.536;2023-05-10T07:33:54;64.86;52.84;75.37;;
51665;Laerm;37751;52.408;12.536;2023-05-10T07:36:22;64.99;54.25;76.99;;
51665;Laerm;37751;52.408;12.536;2023-05-10T07:38:50;63.90;50.40;75.68;;
51665;Laerm;37751;52.408;12.536;2023-05-10T07:41:18;63.01;51.17;73.81;;
51665;Laerm;37751;52.408;12.536;2023-05-10T07:43:46;64.29;53.06;73.45;;
51665;Laerm;37751;52.408;12.536;2023-05-10T07:46:14;66.84;50.80;81.91;;
51665;Laerm;37751;52.408;12.536;2023-05-10T07:48:41;66.31;52.43;77.90;;
51665;Laerm;37751;52.408;12.536;2023-05-10T07:51:09;66.23;52.08;77.71;;
51665;Laerm;37751;52.408;12.536;2023-05-10T07:53:38;65.15;52.89;77.05;;
51665;Laerm;37751;52.408;12.536;2023-05-10T07:56:27;66.20;53.34;81.30;;
51665;Laerm;37751;52.408;12.536;2023-05-10T07:59:00;66.12;52.85;76.32;;
51665;Laerm;37751;52.408;12.536;2023-05-10T08:01:34;65.37;53.71;79.87;;
51665;Laerm;37751;52.408;12.536;2023-05-10T08:04:01;63.02;48.83;77.25;;
51665;Laerm;37751;52.408;12.536;2023-05-10T08:06:30;65.04;52.92;84.65;;
51665;Laerm;37751;52.408;12.536;2023-05-10T08:09:00;67.33;53.76;83.71;;
51665;Laerm;37751;52.408;12.536;2023-05-10T08:11:28;63.65;55.23;73.46;;
51665;Laerm;37751;52.408;12.536;2023-05-10T08:13:56;70.73;61.31;85.87;;
51665;Laerm;37751;52.408;12.536;2023-05-10T08:16:23;67.75;56.35;81.22;;
51665;Laerm;37751;52.408;12.536;2023-05-10T08:18:51;63.41;52.21;71.85;;
51665;Laerm;37751;52.408;12.536;2023-05-10T08:21:19;65.92;51.43;86.46;;
51665;Laerm;37751;52.408;12.536;2023-05-10T08:23:47;64.53;52.28;76.58;;
51665;Laerm;37751;52.408;12.536;2023-05-10T08:26:14;67.07;55.62;83.28;;
51665;Laerm;37751;52.408;12.536;2023-05-10T08:28:42;65.87;50.04;77.65;;
51665;Laerm;37751;52.408;12.536;2023-05-10T08:31:10;64.09;49.55;76.20;;
51665;Laerm;37751;52.408;12.536;2023-05-10T08:33:37;64.90;52.61;79.22;;
51665;Laerm;37751;52.408;12.536;2023-05-10T08:36:05;63.39;48.48;76.14;;
51665;Laerm;37751;52.408;12.536;2023-05-10T08:38:33;63.34;51.60;72.87;;
51665;Laerm;37751;52.408;12.536;2023-05-10T08:41:04;64.56;52.35;76.01;;
51665;Laerm;37751;52.408;12.536;2023-05-10T08:43:33;64.92;52.30;74.19;;
51665;Laerm;37751;52.408;12.536;2023-05-10T08:46:05;64.99;50.07;80.83;;
51665;Laerm;37751;52.408;12.536;2023-05-10T08:48:35;65.40;52.86;75.85;;
51665;Laerm;37751;52.408;12.536;2023-05-10T08:51:04;64.12;49.15;76.96;;
51665;Laerm;37751;52.408;12.536;2023-05-10T08:53:36;64.60;48.70;74.09;;
51665;Laerm;37751;52.408;12.536;2023-05-10T08:56:05;64.45;51.27;73.43;;
51665;Laerm;37751;52.408;12.536;2023-05-10T08:58:33;64.14;53.75;77.48;;
51665;Laerm;37751;52.408;12.536;2023-05-10T09:01:00;63.27;50.16;73.55;;
51665;Laerm;37751;52.408;12.536;2023-05-10T09:03:29;65.01;54.63;74.79;;
51665;Laerm;37751;52.408;12.536;2023-05-10T09:05:57;64.46;54.54;77.54;;
51665;Laerm;37751;52.408;12.536;2023-05-10T09:08:25;64.67;54.25;74.66;;
51665;Laerm;37751;52.408;12.536;2023-05-10T09:10:57;66.96;52.75;79.81;;
51665;Laerm;37751;52.408;12.536;2023-05-10T09:13:25;64.73;51.39;77.42;;
51665;Laerm;37751;52.408;12.536;2023-05-10T09:15:53;66.33;52.75;78.14;;
51665;Laerm;37751;52.408;12.536;2023-05-10T09:18:21;64.41;54.32;78.51;;
51665;Laerm;37751;52.408;12.536;2023-05-10T09:20:49;63.42;50.71;77.24;;
51665;Laerm;37751;52.408;12.536;2023-05-10T09:23:17;63.52;52.78;73.27;;
51665;Laerm;37751;52.408;12.536;2023-05-10T09:25:44;64.70;55.44;73.14;;
51665;Laerm;37751;52.408;12.536;2023-05-10T09:28:12;63.34;53.57;74.03;;
51665;Laerm;37751;52.408;12.536;2023-05-10T09:30:40;65.48;53.52;78.32;;
51665;Laerm;37751;52.408;12.536;2023-05-10T09:33:07;64.67;53.52;74.31;;
51665;Laerm;37751;52.408;12.536;2023-05-10T09:35:35;64.45;53.35;79.77;;
51665;Laerm;37751;52.408;12.536;2023-05-10T09:38:04;63.43;52.51;71.93;;
51665;Laerm;37751;52.408;12.536;2023-05-10T09:40:32;65.73;47.97;80.73;;
51665;Laerm;37751;52.408;12.536;2023-05-10T09:43:03;63.13;50.08;75.36;;
51665;Laerm;37751;52.408;12.536;2023-05-10T09:45:35;64.95;52.97;79.81;;
51665;Laerm;37751;52.408;12.536;2023-05-10T09:48:06;63.69;51.01;75.56;;
51665;Laerm;37751;52.408;12.536;2023-05-10T09:50:34;66.37;54.63;81.28;;
51665;Laerm;37751;52.408;12.536;2023-05-10T09:53:03;66.30;52.78;79.71;;
51665;Laerm;37751;52.408;12.536;2023-05-10T09:55:44;63.37;50.57;77.97;;
51665;Laerm;37751;52.408;12.536;2023-05-10T09:58:36;63.52;54.44;71.63;;
51665;Laerm;37751;52.408;12.536;2023-05-10T10:01:36;64.23;50.74;78.35;;
51665;Laerm;37751;52.408;12.536;2023-05-10T10:04:42;65.42;53.42;82.84;;
51665;Laerm;37751;52.408;12.536;2023-05-10T10:07:35;64.00;54.57;73.67;;
51665;Laerm;37751;52.408;12.536;2023-05-10T10:14:16;64.85;50.55;75.57;;
51665;Laerm;37751;52.408;12.536;2023-05-10T10:16:45;66.08;52.33;85.74;;
51665;Laerm;37751;52.408;12.536;2023-05-10T10:19:36;65.80;54.21;81.17;;
51665;Laerm;37751;52.408;12.536;2023-05-10T10:22:05;63.53;50.89;77.75;;
51665;Laerm;37751;52.408;12.536;2023-05-10T10:24:33;66.57;51.98;79.46;;
51665;Laerm;37751;52.408;12.536;2023-05-10T10:35:54;63.43;51.93;79.69;;
51665;Laerm;37751;52.408;12.536;2023-05-10T10:38:22;64.56;53.34;78.54;;
51665;Laerm;37751;52.408;12.536;2023-05-10T10:41:10;65.06;52.72;74.00;;
51665;Laerm;37751;52.408;12.536;2023-05-10T10:43:38;72.55;52.03;88.54;;
51665;Laerm;37751;52.408;12.536;2023-05-10T10:46:16;65.84;53.94;79.23;;
51665;Laerm;37751;52.408;12.536;2023-05-10T10:48:50;64.30;54.56;71.76;;
51665;Laerm;37751;52.408;12.536;2023-05-10T10:51:38;64.84;54.22;76.59;;
51665;Laerm;37751;52.408;12.536;2023-05-10T10:54:10;65.01;53.53;77.17;;
51665;Laerm;37751;52.408;12.536;2023-05-10T10:56:38;64.90;54.62;77.37;;
51665;Laerm;37751;52.408;12.536;2023-05-10T10:59:07;64.48;51.34;72.94;;
51665;Laerm;37751;52.408;12.536;2023-05-10T11:01:35;65.21;52.33;73.71;;
51665;Laerm;37751;52.408;12.536;2023-05-10T11:06:35;65.39;54.26;72.43;;
51665;Laerm;37751;52.408;12.536;2023-05-10T11:09:09;64.07;53.30;71.88;;
51665;Laerm;37751;52.408;12.536;2023-05-10T11:11:52;64.06;54.13;74.77;;
51665;Laerm;37751;52.408;12.536;2023-05-10T11:14:23;66.60;55.09;91.57;;
51665;Laerm;37751;52.408;12.536;2023-05-10T11:16:51;64.36;54.95;73.78;;
51665;Laerm;37751;52.408;12.536;2023-05-10T11:19:19;64.59;53.94;79.37;;
51665;Laerm;37751;52.408;12.536;2023-05-10T11:24:32;66.29;53.60;84.87;;
51665;Laerm;37751;52.408;12.536;2023-05-10T11:27:01;64.88;54.74;75.59;;
51665;Laerm;37751;52.408;12.536;2023-05-10T11:29:28;65.51;52.84;75.03;;
51665;Laerm;37751;52.408;12.536;2023-05-10T11:31:58;64.57;53.39;79.07;;
51665;Laerm;37751;52.408;12.536;2023-05-10T11:34:30;64.99;51.68;74.03;;
51665;Laerm;37751;52.408;12.536;2023-05-10T11:36:59;67.70;57.10;86.68;;
51665;Laerm;37751;52.408;12.536;2023-05-10T11:39:31;66.92;60.12;81.11;;
51665;Laerm;37751;52.408;12.536;2023-05-10T11:41:59;65.23;56.01;76.00;;
51665;Laerm;37751;52.408;12.536;2023-05-10T11:44:32;64.80;56.95;74.71;;
51665;Laerm;37751;52.408;12.536;2023-05-10T11:47:03;66.09;54.40;81.41;;
51665;Laerm;37751;52.408;12.536;2023-05-10T11:49:31;63.54;51.06;71.34;;
51665;Laerm;37751;52.408;12.536;2023-05-10T11:52:08;64.31;53.76;74.40;;
51665;Laerm;37751;52.408;12.536;2023-05-10T11:54:36;64.71;55.47;74.10;;
51665;Laerm;37751;52.408;12.536;2023-05-10T11:57:04;65.53;53.07;73.57;;
51665;Laerm;37751;52.408;12.536;2023-05-10T11:59:33;65.49;55.46;74.51;;
51665;Laerm;37751;52.408;12.536;2023-05-10T12:02:01;64.24;53.45;75.94;;
51665;Laerm;37751;52.408;12.536;2023-05-10T12:04:29;63.41;49.32;74.88;;
51665;Laerm;37751;52.408;12.536;2023-05-10T12:06:58;69.54;51.33;89.23;;
51665;Laerm;37751;52.408;12.536;2023-05-10T12:09:25;65.51;54.81;77.45;;
51665;Laerm;37751;52.408;12.536;2023-05-10T12:12:10;64.87;54.69;75.08;;
51665;Laerm;37751;52.408;12.536;2023-05-10T12:14:38;68.03;58.59;80.35;;
51665;Laerm;37751;52.408;12.536;2023-05-10T12:17:05;65.50;56.49;74.42;;
51665;Laerm;37751;52.408;12.536;2023-05-10T12:19:38;64.70;53.41;75.72;;
51665;Laerm;37751;52.408;12.536;2023-05-10T12:22:06;66.71;52.93;80.88;;
51665;Laerm;37751;52.408;12.536;2023-05-10T12:24:35;66.05;54.51;76.51;;
51665;Laerm;37751;52.408;12.536;2023-05-10T12:27:08;69.43;56.10;88.51;;
51665;Laerm;37751;52.408;12.536;2023-05-10T12:29:36;68.09;53.92;82.32;;
51665;Laerm;37751;52.408;12.536;2023-05-10T12:32:04;65.40;54.93;74.85;;
51665;Laerm;37751;52.408;12.536;2023-05-10T12:34:33;64.48;55.56;74.54;;
51665;Laerm;37751;52.408;12.536;2023-05-10T12:37:03;65.03;53.28;75.00;;
51665;Laerm;37751;52.408;12.536;2023-05-10T12:39:44;65.44;54.57;74.96;;
51665;Laerm;37751;52.408;12.536;2023-05-10T12:42:13;65.75;57.31;75.41;;
51665;Laerm;37751;52.408;12.536;2023-05-10T12:44:41;65.46;51.84;78.73;;
51665;Laerm;37751;52.408;12.536;2023-05-10T12:47:08;64.52;55.26;73.65;;
51665;Laerm;37751;52.408;12.536;2023-05-10T12:49:36;66.16;54.50;74.76;;
51665;Laerm;37751;52.408;12.536;2023-05-10T12:52:04;64.48;54.52;71.57;;
51665;Laerm;37751;52.408;12.536;2023-05-10T12:54:32;65.65;52.00;79.48;;
51665;Laerm;37751;52.408;12.536;2023-05-10T12:56:59;81.72;58.00;97.45;;
51665;Laerm;37751;52.408;12.536;2023-05-10T12:59:27;64.87;55.30;73.39;;
51665;Laerm;37751;52.408;12.536;2023-05-10T13:01:55;67.76;58.10;77.93;;
51665;Laerm;37751;52.408;12.536;2023-05-10T13:04:23;66.17;54.08;75.92;;
51665;Laerm;37751;52.408;12.536;2023-05-10T13:06:50;65.85;56.46;77.79;;
51665;Laerm;37751;52.408;12.536;2023-05-10T13:09:18;65.90;53.56;74.85;;
51665;Laerm;37751;52.408;12.536;2023-05-10T13:11:48;65.71;56.34;78.95;;
51665;Laerm;37751;52.408;12.536;2023-05-10T13:14:16;65.57;56.43;72.69;;
51665;Laerm;37751;52.408;12.536;2023-05-10T13:16:44;64.73;53.48;76.38;;
51665;Laerm;37751;52.408;12.536;2023-05-10T13:19:15;65.21;52.37;79.16;;
51665;Laerm;37751;52.408;12.536;2023-05-10T13:21:44;65.51;54.85;76.08;;
51665;Laerm;37751;52.408;12.536;2023-05-10T13:24:12;64.69;54.12;72.97;;
51665;Laerm;37751;52.408;12.536;2023-05-10T13:26:41;64.79;54.13;77.15;;
51665;Laerm;37751;52.408;12.536;2023-05-10T13:29:09;66.26;56.35;81.96;;
51665;Laerm;37751;52.408;12.536;2023-05-10T13:31:36;67.08;56.89;79.50;;
51665;Laerm;37751;52.408;12.536;2023-05-10T13:34:05;64.33;51.49;70.86;;
51665;Laerm;37751;52.408;12.536;2023-05-10T13:36:32;65.72;55.61;73.62;;
51665;Laerm;37751;52.408;12.536;2023-05-10T13:39:00;68.18;59.76;85.22;;
51665;Laerm;37751;52.408;12.536;2023-05-10T13:41:30;67.50;57.52;78.47;;
51665;Laerm;37751;52.408;12.536;2023-05-10T13:43:57;66.66;60.77;72.78;;
51665;Laerm;37751;52.408;12.536;2023-05-10T13:46:25;65.52;56.83;76.53;;
51665;Laerm;37751;52.408;12.536;2023-05-10T13:48:53;67.83;59.08;90.31;;
51665;Laerm;37751;52.408;12.536;2023-05-10T13:51:20;67.29;59.62;78.03;;
51665;Laerm;37751;52.408;12.536;2023-05-10T13:53:48;67.32;60.64;78.72;;
51665;Laerm;37751;52.408;12.536;2023-05-10T13:56:16;65.73;55.29;76.02;;
51665;Laerm;37751;52.408;12.536;2023-05-10T13:58:44;65.30;57.11;78.79;;
51665;Laerm;37751;52.408;12.536;2023-05-10T14:01:12;65.58;59.96;75.15;;
51665;Laerm;37751;52.408;12.536;2023-05-10T14:03:40;66.61;57.31;76.43;;
51665;Laerm;37751;52.408;12.536;2023-05-10T14:06:08;68.05;56.15;82.86;;
51665;Laerm;37751;52.408;12.536;2023-05-10T14:08:36;65.10;57.62;72.58;;
51665;Laerm;37751;52.408;12.536;2023-05-10T14:11:04;76.26;57.30;96.62;;
51665;Laerm;37751;52.408;12.536;2023-05-10T14:13:32;66.30;57.18;74.02;;
51665;Laerm;37751;52.408;12.536;2023-05-10T14:16:00;66.50;56.40;85.15;;